Alamo Heights, Texas
Current Conditions -  °F | °C
As of 8:51 PM on Saturday 20 Dec 2014 (Local Time) from KSAT Reporting Station
Overcast Overcast  
Wind Chill: 53°   Ceiling: 2400
Heat Index: 53°   Visibility: 10mi
Dew Point: 44°   Wind: 5mph
Humidity: 71%   Direction: 40°NE
Pressure: 30.17"   Gusts: NA
Location:  29.4797°N, 98.4508°W
Report Text: KSAT 210251Z 04004KT 10SM OVC024 12/07 A3017 RMK AO2 SLP206 T01170067 51008
Loading
Personal Weather Stations






























Interactive Weather Map New forecast layout! Learn more

10-Day Weather Forecast

Advertisements
Track Severe Weather on mobile